Time;durP1;ratioP1;P1;durP2;ratioP2;P2;SDS_P1;SDS_P2;PMS_P1;PMS_P2;Temp;Humidity;BMP_temperature;BMP_pressure;BME280_temperature;BME280_humidity;BME280_pressure;Samples;Min_cycle;Max_cycle;Signal;HPM_P1;HPM_P2
2020/12/11 00:02:00;;;;;;;1.63;1.00;;;;;;;11.17;78.70;97828.00;5032445;28;20029;-81
2020/12/11 00:04:26;;;;;;;1.40;0.80;;;;;;;11.34;78.53;97821.69;5032516;28;20025;-81
2020/12/11 00:06:51;;;;;;;2.58;0.73;;;;;;;11.39;77.53;97814.09;5033268;28;20026;-80
2020/12/11 00:09:16;;;;;;;0.73;0.65;;;;;;;11.25;78.92;97817.44;5033133;28;20056;-81
2020/12/11 00:11:42;;;;;;;1.45;0.65;;;;;;;11.38;78.55;97809.03;5033034;28;20053;-81
2020/12/11 00:14:07;;;;;;;1.48;0.60;;;;;;;11.44;78.13;97809.16;5033174;28;20490;-81
2020/12/11 00:16:32;;;;;;;1.85;0.60;;;;;;;11.45;78.28;97800.28;5033033;28;20022;-81
2020/12/11 00:18:58;;;;;;;2.40;1.08;;;;;;;11.38;78.49;97804.59;5032805;28;20037;-81
2020/12/11 00:21:23;;;;;;;1.30;0.73;;;;;;;11.41;78.25;97804.22;5032882;28;20021;-81
2020/12/11 00:23:48;;;;;;;1.17;0.68;;;;;;;11.45;78.26;97795.03;5032889;28;20110;-81
2020/12/11 00:26:17;;;;;;;1.17;0.85;;;;;;;11.43;78.50;97789.13;5032855;28;20033;-81
2020/12/11 00:28:43;;;;;;;1.27;0.93;;;;;;;11.40;78.90;97789.47;5032673;28;20445;-81
2020/12/11 00:31:08;;;;;;;1.95;0.77;;;;;;;11.53;78.44;97786.25;5032616;28;20109;-81
2020/12/11 00:33:33;;;;;;;2.40;0.63;;;;;;;11.59;78.30;97782.94;5032729;28;20034;-81
2020/12/11 00:35:58;;;;;;;0.60;0.60;;;;;;;11.53;78.57;97783.63;5032692;28;20093;-81
2020/12/11 00:38:24;;;;;;;1.05;0.70;;;;;;;11.51;78.65;97781.19;5032601;28;20104;-81
2020/12/11 00:40:49;;;;;;;1.02;0.90;;;;;;;11.46;78.82;97778.25;5032915;28;20036;-81
2020/12/11 00:43:15;;;;;;;1.08;0.98;;;;;;;11.31;79.29;97774.72;5032209;28;20439;-81
2020/12/11 00:45:40;;;;;;;1.60;1.08;;;;;;;11.27;79.58;97776.88;5032587;28;20533;-81
2020/12/11 00:48:06;;;;;;;1.30;1.20;;;;;;;11.28;79.76;97772.47;5032675;28;20472;-81
2020/12/11 00:50:31;;;;;;;2.35;1.63;;;;;;;11.07;80.42;97773.88;5032275;28;20025;-81
2020/12/11 00:52:57;;;;;;;2.25;1.30;;;;;;;11.23;80.16;97756.41;5032072;28;20025;-81
2020/12/11 00:55:22;;;;;;;2.10;1.90;;;;;;;11.25;79.83;97755.22;5032236;28;20064;-81
2020/12/11 00:57:48;;;;;;;1.90;1.40;;;;;;;11.33;79.72;97762.25;5032350;28;20025;-81
2020/12/11 01:00:16;;;;;;;1.35;1.25;;;;;;;11.49;79.05;97750.81;5032093;28;20036;-81
2020/12/11 01:02:41;;;;;;;1.48;1.38;;;;;;;11.34;79.32;97758.63;5032297;28;20035;-81
2020/12/11 01:05:07;;;;;;;1.42;1.33;;;;;;;11.43;79.13;97746.25;5032312;28;20104;-81
2020/12/11 01:07:32;;;;;;;1.27;1.17;;;;;;;11.58;78.87;97743.69;5032084;28;20395;-81
2020/12/11 01:09:58;;;;;;;1.55;1.23;;;;;;;11.60;78.40;97736.47;5031764;28;20034;-81
2020/12/11 01:12:23;;;;;;;1.70;0.75;;;;;;;11.55;78.60;97738.78;5032024;28;20021;-81
2020/12/11 01:14:49;;;;;;;0.85;0.85;;;;;;;11.58;79.05;97733.19;5031822;28;20067;-81
2020/12/11 01:17:15;;;;;;;1.40;0.90;;;;;;;11.63;78.36;97715.06;5032042;28;20029;-81
2020/12/11 01:19:40;;;;;;;1.00;0.90;;;;;;;11.56;78.64;97704.44;5031743;28;20387;-81
2020/12/11 01:22:05;;;;;;;4.22;1.27;;;;;;;11.58;78.79;97712.16;5031755;28;20022;-81
2020/12/11 01:24:31;;;;;;;1.40;1.02;;;;;;;11.48;78.45;97707.16;5031873;28;20021;-81
2020/12/11 01:26:57;;;;;;;1.58;1.00;;;;;;;11.41;78.92;97704.38;5031849;28;20029;-80
2020/12/11 01:29:22;;;;;;;1.48;1.05;;;;;;;11.48;78.48;97696.63;5031818;28;20154;-81
2020/12/11 01:31:48;;;;;;;1.40;1.10;;;;;;;11.44;78.70;97690.91;5031751;28;20040;-79
2020/12/11 01:34:13;;;;;;;1.42;1.33;;;;;;;11.44;78.47;97690.91;5031420;28;20033;-79
2020/12/11 01:36:38;;;;;;;1.65;1.40;;;;;;;11.34;78.83;97684.28;5031743;28;20467;-81
2020/12/11 01:39:04;;;;;;;3.17;1.38;;;;;;;11.26;78.75;97677.25;5031628;28;20029;-81
2020/12/11 01:41:31;;;;;;;1.20;1.08;;;;;;;11.27;78.52;97678.88;5032214;28;20433;-81
2020/12/11 01:44:04;;;;;;;1.48;1.38;;;;;;;11.20;78.59;97680.59;5031627;28;20071;-81
2020/12/11 01:46:36;;;;;;;1.73;1.25;;;;;;;11.12;78.68;97673.59;5030434;28;20083;-81
2020/12/11 01:49:02;;;;;;;2.05;1.15;;;;;;;11.09;78.48;97679.19;5030073;28;20079;-81
2020/12/11 01:51:27;;;;;;;1.30;1.20;;;;;;;10.92;78.54;97675.84;5031601;28;20029;-81
2020/12/11 01:53:53;;;;;;;1.25;1.15;;;;;;;10.89;78.25;97666.50;5031524;28;20116;-81
2020/12/11 01:56:20;;;;;;;2.35;1.27;;;;;;;10.82;77.75;97669.97;5031516;28;20545;-81
2020/12/11 01:58:47;;;;;;;3.10;1.55;;;;;;;10.77;79.22;97661.81;5031642;28;20029;-81
2020/12/11 02:01:15;;;;;;;1.50;1.40;;;;;;;10.76;78.85;97655.75;5031549;28;20029;-82
2020/12/11 02:03:42;;;;;;;1.77;1.40;;;;;;;10.69;78.70;97666.13;5031348;28;20025;-81
2020/12/11 02:06:07;;;;;;;1.58;1.48;;;;;;;10.60;78.57;97661.09;5031502;28;20029;-81
2020/12/11 02:08:33;;;;;;;5.13;1.52;;;;;;;10.48;77.89;97658.03;5031472;28;20032;-81
2020/12/11 02:10:59;;;;;;;1.45;1.35;;;;;;;10.35;78.45;97663.81;5031349;28;20021;-81
2020/12/11 02:13:24;;;;;;;2.45;1.70;;;;;;;10.20;77.57;97653.19;5031480;28;20523;-82
2020/12/11 02:15:49;;;;;;;1.63;1.52;;;;;;;10.06;78.41;97657.31;5031421;28;20036;-81
2020/12/11 02:18:15;;;;;;;1.67;1.45;;;;;;;10.04;78.50;97658.50;5031308;28;20417;-81
2020/12/11 02:20:40;;;;;;;1.90;1.70;;;;;;;10.00;79.63;97659.81;5031427;28;20087;-82
2020/12/11 02:23:06;;;;;;;4.05;2.03;;;;;;;10.08;78.83;97657.16;5031446;28;20026;-81
2020/12/11 02:25:31;;;;;;;2.17;1.90;;;;;;;10.15;78.96;97668.63;5031697;28;20096;-81
2020/12/11 02:27:56;;;;;;;2.58;1.52;;;;;;;10.21;79.56;97660.06;5034821;28;20029;-80
2020/12/11 02:30:22;;;;;;;3.55;1.58;;;;;;;10.27;79.85;97655.97;5034857;28;20026;-80
2020/12/11 02:32:47;;;;;;;3.05;1.80;;;;;;;10.35;79.59;97655.13;5034967;28;20087;-81
2020/12/11 02:35:13;;;;;;;5.15;2.28;;;;;;;10.44;80.12;97654.09;5035087;28;20025;-80
2020/12/11 02:37:39;;;;;;;6.22;2.38;;;;;;;10.51;80.00;97642.75;5034921;28;20037;-80
2020/12/11 02:40:06;;;;;;;11.18;2.85;;;;;;;10.56;79.76;97641.44;5034734;28;20033;-80
2020/12/11 02:42:32;;;;;;;8.23;2.58;;;;;;;10.55;80.18;97634.56;5035333;28;20044;-80
2020/12/11 02:44:58;;;;;;;11.25;3.35;;;;;;;10.58;80.50;97631.56;5034832;28;20029;-80
2020/12/11 02:47:24;;;;;;;7.72;3.03;;;;;;;10.67;80.09;97630.56;5034573;28;20384;-80
2020/12/11 02:49:49;;;;;;;7.70;3.25;;;;;;;10.65;79.83;97620.22;5034469;28;20051;-80
2020/12/11 02:52:15;;;;;;;8.57;3.42;;;;;;;10.70;79.97;97625.78;5034765;28;20036;-80
2020/12/11 02:54:40;;;;;;;11.80;3.40;;;;;;;10.82;80.05;97617.50;5034511;28;20075;-80
2020/12/11 02:57:05;;;;;;;9.23;3.30;;;;;;;10.85;80.15;97620.59;5034801;28;20025;-80
2020/12/11 02:59:31;;;;;;;9.43;2.38;;;;;;;10.94;79.69;97615.28;5034483;28;20426;-80
2020/12/11 03:01:56;;;;;;;7.65;3.17;;;;;;;10.78;79.49;97603.91;5032898;28;20033;-80
2020/12/11 03:04:21;;;;;;;10.73;3.55;;;;;;;10.74;78.97;97602.59;5034123;28;20033;-80
2020/12/11 03:06:47;;;;;;;6.63;2.30;;;;;;;10.71;79.30;97611.66;5034629;28;20033;-80
2020/12/11 03:09:12;;;;;;;10.23;3.15;;;;;;;10.71;79.41;97598.53;5034402;28;20051;-80
2020/12/11 03:11:37;;;;;;;13.10;3.15;;;;;;;10.68;79.18;97609.41;5034021;28;20057;-82
2020/12/11 03:14:03;;;;;;;10.00;3.80;;;;;;;10.54;79.98;97599.63;5034048;28;20026;-81
2020/12/11 03:16:28;;;;;;;13.60;3.13;;;;;;;10.50;79.84;97593.91;5034348;28;20030;-81
2020/12/11 03:18:53;;;;;;;7.38;2.53;;;;;;;10.51;79.26;97605.22;5033692;28;20037;-81
2020/12/11 03:21:19;;;;;;;11.38;2.85;;;;;;;10.44;79.62;97591.16;5033025;28;20029;-81
2020/12/11 03:23:45;;;;;;;9.68;3.05;;;;;;;10.48;80.01;97589.81;5034087;28;20063;-81
2020/12/11 03:26:10;;;;;;;7.93;2.30;;;;;;;10.51;79.53;97590.28;5033995;28;20033;-81
2020/12/11 03:28:35;;;;;;;7.55;2.42;;;;;;;10.41;79.04;97589.69;5033933;28;20025;-81
2020/12/11 03:31:02;;;;;;;8.27;3.42;;;;;;;10.30;78.90;97592.69;5032616;28;20104;-81
2020/12/11 03:33:27;;;;;;;9.20;2.83;;;;;;;10.26;79.49;97586.13;5033700;28;20030;-81
2020/12/11 03:35:54;;;;;;;9.23;2.85;;;;;;;10.38;79.35;97578.72;5033768;28;20028;-81
2020/12/11 03:38:19;;;;;;;13.70;3.35;;;;;;;10.39;79.64;97575.13;5033795;28;20045;-81
2020/12/11 03:40:44;;;;;;;18.17;3.75;;;;;;;10.20;79.87;97569.28;5048616;22;20033;-87
2020/12/11 03:43:10;;;;;;;14.80;3.75;;;;;;;10.31;79.56;97568.94;5052850;28;20091;-89
2020/12/11 03:45:35;;;;;;;7.45;2.42;;;;;;;10.22;78.88;97571.72;5053251;28;20025;-88
2020/12/11 03:48:01;;;;;;;10.85;2.10;;;;;;;9.96;77.74;97559.72;5053155;28;20032;-87
2020/12/11 03:50:26;;;;;;;5.65;1.90;;;;;;;9.84;78.41;97558.47;5053102;28;20021;-87
2020/12/11 03:52:52;;;;;;;2.67;1.77;;;;;;;9.78;78.84;97567.00;5053196;28;20031;-87
2020/12/11 03:55:17;;;;;;;4.60;1.58;;;;;;;9.70;78.63;97563.41;5052963;28;20416;-87
2020/12/11 03:57:42;;;;;;;5.80;2.22;;;;;;;9.60;79.18;97559.38;5052622;28;20384;-87
2020/12/11 04:00:08;;;;;;;7.70;1.63;;;;;;;9.54;78.89;97555.59;5052827;28;20029;-89
2020/12/11 04:02:34;;;;;;;6.50;2.00;;;;;;;9.50;78.96;97555.13;5051391;28;20056;-87
2020/12/11 04:05:02;;;;;;;9.77;2.42;;;;;;;9.46;78.75;97548.59;5052801;28;20377;-87
2020/12/11 04:07:28;;;;;;;17.45;3.78;;;;;;;9.40;79.45;97551.03;5052693;28;20533;-87
2020/12/11 04:09:53;;;;;;;6.75;1.85;;;;;;;9.40;79.01;97540.56;5052568;28;20021;-87
2020/12/11 04:12:18;;;;;;;7.50;1.98;;;;;;;9.39;78.77;97546.78;5052063;28;20033;-87
2020/12/11 04:14:44;;;;;;;9.32;2.10;;;;;;;9.35;79.71;97543.69;5052471;28;20063;-87
2020/12/11 04:17:09;;;;;;;6.07;1.88;;;;;;;9.34;79.12;97539.44;5052561;28;20021;-87
2020/12/11 04:19:35;;;;;;;7.05;1.60;;;;;;;9.29;79.67;97537.31;5050938;28;20029;-88
2020/12/11 04:22:02;;;;;;;6.32;1.77;;;;;;;9.26;78.90;97534.19;5052292;28;20032;-89
2020/12/11 04:24:28;;;;;;;8.75;2.13;;;;;;;9.21;78.88;97528.66;5052381;28;20029;-89
2020/12/11 04:26:53;;;;;;;13.77;2.08;;;;;;;9.18;78.51;97531.59;5052568;28;20382;-89
2020/12/11 04:29:18;;;;;;;10.18;2.50;;;;;;;9.18;79.07;97519.31;5052422;28;20497;-89
2020/12/11 04:31:53;;;;;;;18.60;2.80;;;;;;;9.22;80.96;97525.03;5052205;28;20406;-89
2020/12/11 04:34:18;;;;;;;9.90;2.63;;;;;;;9.13;78.76;97522.44;5050585;28;20025;-88
2020/12/11 04:36:48;;;;;;;10.05;2.10;;;;;;;9.03;78.13;97521.81;5052722;28;20492;-87
2020/12/11 04:39:14;;;;;;;10.63;2.28;;;;;;;8.89;78.91;97519.88;5052881;28;20028;-88
2020/12/11 04:41:43;;;;;;;8.50;2.10;;;;;;;8.91;78.36;97515.28;5056434;22;20041;-80
2020/12/11 04:44:09;;;;;;;4.97;1.67;;;;;;;8.91;80.23;97515.28;5032230;28;20056;-81
2020/12/11 04:46:35;;;;;;;29.17;4.75;;;;;;;9.04;81.00;97504.28;5032657;28;20065;-81
2020/12/11 04:49:01;;;;;;;10.65;2.40;;;;;;;8.91;79.10;97497.78;5031897;28;20048;-81
2020/12/11 04:51:29;;;;;;;11.90;2.03;;;;;;;8.97;79.52;97506.78;5032422;28;20029;-81
2020/12/11 04:53:57;;;;;;;9.55;1.83;;;;;;;8.91;79.30;97502.19;5032620;28;20072;-81
2020/12/11 04:56:24;;;;;;;9.60;2.05;;;;;;;8.87;79.67;97487.81;5032614;28;20404;-81
2020/12/11 04:58:51;;;;;;;8.38;1.85;;;;;;;8.81;78.97;97491.09;5031906;28;20033;-81
2020/12/11 05:01:27;;;;;;;23.05;4.07;;;;;;;8.87;81.03;97491.25;5032401;28;20049;-81
2020/12/11 05:03:53;;;;;;;17.55;3.58;;;;;;;8.98;82.07;97479.59;5032550;28;20106;-81
2020/12/11 05:06:19;;;;;;;35.97;4.50;;;;;;;9.13;82.18;97477.94;5032020;28;20029;-81
2020/12/11 05:08:44;;;;;;;13.57;3.55;;;;;;;9.06;79.21;97479.63;5032127;28;20499;-81
2020/12/11 05:11:25;;;;;;;16.92;2.28;;;;;;;8.97;79.44;97472.75;5032298;28;20409;-81
2020/12/11 05:13:50;;;;;;;13.27;2.53;;;;;;;8.87;79.63;97464.25;5032219;28;20033;-80
2020/12/11 05:16:16;;;;;;;17.50;3.08;;;;;;;8.90;80.17;97462.09;5032056;28;20080;-80
2020/12/11 05:18:41;;;;;;;30.35;4.13;;;;;;;8.97;81.91;97464.09;5032033;28;20029;-80
2020/12/11 05:21:33;;;;;;;29.25;3.80;;;;;;;9.09;80.98;97460.94;5031721;28;20075;-80
2020/12/11 05:24:02;;;;;;;19.20;3.38;;;;;;;9.16;80.77;97452.41;5030838;28;20506;-80
2020/12/11 05:26:32;;;;;;;31.77;4.65;;;;;;;9.27;81.55;97452.88;5031966;28;20116;-80
2020/12/11 05:28:59;;;;;;;38.25;3.88;;;;;;;9.20;80.05;97454.56;5031615;28;20107;-81
2020/12/11 05:31:25;;;;;;;27.75;4.90;;;;;;;9.26;81.01;97442.56;5031544;28;20025;-80
2020/12/11 05:34:11;;;;;;;36.10;4.07;;;;;;;9.42;81.12;97441.69;5030620;28;20021;-79
2020/12/11 05:36:46;;;;;;;38.58;5.38;;;;;;;9.56;80.68;97442.78;5030372;28;20022;-82
2020/12/11 05:39:12;;;;;;;21.20;3.55;;;;;;;9.42;79.89;97439.06;5030393;28;20052;-81
2020/12/11 05:41:38;;;;;;;12.65;2.67;;;;;;;9.50;80.68;97432.03;5032224;28;20108;-81
2020/12/11 05:44:23;;;;;;;25.00;4.55;;;;;;;9.65;81.33;97436.53;5031732;28;20032;-81
2020/12/11 05:46:49;;;;;;;30.45;4.38;;;;;;;9.75;81.10;97431.88;5031689;28;20096;-81
2020/12/11 05:49:23;;;;;;;44.63;4.35;;;;;;;9.91;80.96;97434.44;5031676;28;20060;-81
2020/12/11 05:51:55;;;;;;;19.42;2.88;;;;;;;9.87;79.56;97437.56;5033767;28;20048;-81
2020/12/11 05:54:21;;;;;;;;;;;;;;;9.88;79.60;97420.84;5032086;28;20087;-81
2020/12/11 05:56:48;;;;;;;24.42;3.35;;;;;;;9.96;80.80;97426.03;5031299;28;20314;-80
2020/12/11 05:59:14;;;;;;;29.45;4.50;;;;;;;9.98;80.43;97416.19;5031565;28;20021;-81
2020/12/11 06:01:39;;;;;;;21.58;4.10;;;;;;;10.11;79.60;97440.03;5033747;28;20368;-82
2020/12/11 06:04:05;;;;;;;21.17;3.47;;;;;;;9.97;79.59;97432.91;5035556;28;20022;-81
2020/12/11 06:06:35;;;;;;;16.20;3.25;;;;;;;9.93;79.01;97429.00;5034408;28;20033;-81
2020/12/11 06:09:01;;;;;;;17.67;3.13;;;;;;;9.90;80.16;97424.94;5035422;28;20112;-81
2020/12/11 06:11:35;;;;;;;14.82;2.88;;;;;;;9.97;79.66;97425.03;5035302;28;20029;-80
2020/12/11 06:14:06;;;;;;;30.45;3.95;;;;;;;10.04;79.87;97425.19;5046295;28;20407;-81
2020/12/11 06:16:37;;;;;;;15.63;2.78;;;;;;;10.12;79.84;97427.75;5054193;28;20031;-81
2020/12/11 06:19:05;;;;;;;15.20;2.67;;;;;;;10.13;80.10;97424.16;5038891;28;20084;-80
2020/12/11 06:21:31;;;;;;;19.33;2.97;;;;;;;10.08;79.15;97415.97;5035226;28;20032;-79
2020/12/11 06:23:56;;;;;;;20.30;2.90;;;;;;;10.12;79.59;97427.75;5035158;28;20017;-79
2020/12/11 06:26:22;;;;;;;14.27;2.30;;;;;;;10.12;79.17;97425.94;5035056;28;20041;-80
2020/12/11 06:28:49;;;;;;;11.93;2.45;;;;;;;10.10;79.11;97422.66;5035228;28;20032;-81
2020/12/11 06:31:22;;;;;;;13.38;2.55;;;;;;;10.12;79.04;97417.25;5034978;28;20030;-81
2020/12/11 06:33:54;;;;;;;14.88;2.38;;;;;;;10.08;78.98;97421.22;5042591;28;20037;-81
2020/12/11 06:36:20;;;;;;;9.90;2.05;;;;;;;10.12;79.88;97417.25;5052906;28;20107;-81
2020/12/11 06:38:50;;;;;;;8.38;2.28;;;;;;;10.12;79.64;97417.25;5043546;28;20112;-81
2020/12/11 06:41:27;;;;;;;13.40;2.50;;;;;;;10.11;78.72;97415.59;5047911;22;20076;-88
2020/12/11 06:43:57;;;;;;;16.27;2.80;;;;;;;10.01;78.29;97410.63;5034307;28;20025;-88
2020/12/11 06:46:25;;;;;;;16.15;3.15;;;;;;;10.00;79.25;97402.94;5034363;28;20029;-88
2020/12/11 06:49:06;;;;;;;29.27;3.95;;;;;;;10.09;79.50;97404.50;5033973;28;20029;-88
2020/12/11 06:51:33;;;;;;;22.98;3.75;;;;;;;10.04;78.99;97398.97;5032889;28;20033;-88
2020/12/11 06:53:59;;;;;;;16.17;3.38;;;;;;;9.91;78.68;97412.63;5040851;28;20033;-88
2020/12/11 06:56:44;;;;;;;14.68;2.78;;;;;;;9.90;78.65;97403.97;5054120;28;20027;-88
2020/12/11 06:59:36;;;;;;;23.17;3.70;;;;;;;9.64;79.09;97406.91;5035969;28;20025;-88
2020/12/11 07:02:02;;;;;;;;;;;;;;;9.67;78.93;97413.59;5047921;28;20116;-88
2020/12/11 07:04:37;;;;;;;13.03;2.00;;;;;;;9.75;79.63;97410.94;5054007;28;20008;-88
2020/12/11 07:07:02;;;;;;;23.08;3.58;;;;;;;9.77;78.87;97402.91;5047904;28;20756;-88
2020/12/11 07:09:28;;;;;;;23.30;3.78;;;;;;;9.80;80.01;97405.19;5032507;28;20025;-88
2020/12/11 07:11:57;;;;;;;28.85;4.88;;;;;;;9.87;79.84;97395.63;5033360;28;20424;-88
2020/12/11 07:14:26;;;;;;;30.88;3.45;;;;;;;9.89;78.50;97409.38;5035208;28;20030;-88
2020/12/11 07:16:52;;;;;;;23.08;4.85;;;;;;;9.93;78.79;97402.78;5025756;28;20033;-88
2020/12/11 07:19:17;;;;;;;27.05;3.78;;;;;;;9.97;78.52;97400.66;5043643;28;20025;-88
2020/12/11 07:21:46;;;;;;;21.83;3.65;;;;;;;9.98;78.73;97405.72;5033266;28;20048;-88
2020/12/11 07:24:12;;;;;;;27.00;3.78;;;;;;;9.88;79.75;97395.47;5033225;28;20031;-88
2020/12/11 07:26:37;;;;;;;31.23;4.43;;;;;;;9.98;79.85;97402.28;5033507;28;20026;-88
2020/12/11 07:29:05;;;;;;;34.83;4.55;;;;;;;10.02;80.44;97398.34;5033450;28;20030;-88
2020/12/11 07:31:38;;;;;;;26.45;4.35;;;;;;;10.10;79.94;97398.25;5033014;28;20440;-88
2020/12/11 07:34:11;;;;;;;21.23;3.70;;;;;;;10.15;80.05;97403.81;5030757;28;20025;-88
2020/12/11 07:36:43;;;;;;;30.10;4.05;;;;;;;10.23;79.85;97406.38;5030121;28;20029;-88
2020/12/11 07:39:15;;;;;;;;;;;;;;;10.28;80.02;97411.88;5033281;28;20028;-89
2020/12/11 07:41:43;;;;;;;35.63;4.70;;;;;;;10.30;80.37;97402.06;5054536;22;19920;-81
2020/12/11 07:44:09;;;;;;;29.73;5.22;;;;;;;10.39;79.69;97404.66;5052876;28;20490;-81
2020/12/11 07:46:39;;;;;;;25.08;4.30;;;;;;;10.42;79.58;97402.47;5048083;28;20036;-80
2020/12/11 07:49:05;;;;;;;20.92;3.55;;;;;;;10.43;79.44;97408.53;5052233;28;20520;-80
2020/12/11 07:51:30;;;;;;;18.02;3.22;;;;;;;10.48;79.51;97416.69;5033375;28;20053;-81
2020/12/11 07:53:56;;;;;;;31.27;6.63;;;;;;;10.49;79.99;97407.84;5038891;28;20033;-81
2020/12/11 07:56:25;;;;;;;22.73;6.30;;;;;;;10.53;79.60;97409.13;5046835;28;20120;-81
2020/12/11 07:58:51;;;;;;;35.03;7.10;;;;;;;10.52;79.15;97407.47;5033341;28;20440;-83
2020/12/11 08:01:17;;;;;;;35.10;6.60;;;;;;;10.47;80.15;97402.75;5041111;28;20136;-82
2020/12/11 08:03:42;;;;;;;22.15;4.43;;;;;;;10.48;79.83;97408.81;5045529;28;20402;-82
2020/12/11 08:06:12;;;;;;;25.60;4.70;;;;;;;10.54;79.08;97413.34;5046501;28;20033;-82
2020/12/11 08:08:37;;;;;;;22.35;3.67;;;;;;;10.53;79.48;97414.34;5051459;28;20064;-82
2020/12/11 08:11:02;;;;;;;25.23;4.10;;;;;;;10.56;78.96;97416.59;5053139;28;20439;-81
2020/12/11 08:13:28;;;;;;;15.70;3.60;;;;;;;10.53;78.75;97411.72;5049121;28;20018;-80
2020/12/11 08:16:00;;;;;;;29.98;4.13;;;;;;;10.48;78.91;97417.50;5045097;28;20024;-80
2020/12/11 08:18:29;;;;;;;36.00;4.85;;;;;;;10.52;79.17;97413.56;5051098;28;20133;-82
2020/12/11 08:20:58;;;;;;;19.05;3.38;;;;;;;10.55;78.74;97412.38;5052607;28;20199;-80
2020/12/11 08:23:43;;;;;;;22.23;3.50;;;;;;;10.56;78.67;97418.44;5051995;28;20056;-81
2020/12/11 08:26:19;;;;;;;18.80;3.60;;;;;;;10.50;78.71;97404.19;5051213;28;20029;-82
2020/12/11 08:28:47;;;;;;;16.40;3.22;;;;;;;10.46;79.08;97401.13;5052797;28;20391;-80
2020/12/11 08:31:21;;;;;;;20.92;3.90;;;;;;;10.60;78.88;97407.38;5050146;28;20062;-82
2020/12/11 08:33:47;;;;;;;38.28;4.75;;;;;;;10.56;78.64;97408.75;5048678;28;20040;-82
2020/12/11 08:36:19;;;;;;;30.38;4.95;;;;;;;10.81;77.80;97419.03;5039820;28;20028;-81
2020/12/11 08:39:08;;;;;;;30.98;4.60;;;;;;;10.66;78.41;97419.81;5052341;28;20508;-81
2020/12/11 08:41:37;;;;;;;25.27;4.03;;;;;;;10.85;78.06;97420.28;5034461;28;20053;-81
2020/12/11 08:44:06;;;;;;;35.28;4.85;;;;;;;10.77;78.63;97413.31;5043603;28;20082;-81
2020/12/11 08:51:29;;;;;;;38.92;5.40;;;;;;;11.00;78.11;97423.75;5050219;28;20029;-80
2020/12/11 08:53:56;;;;;;;27.83;4.78;;;;;;;11.05;77.73;97413.50;5051785;28;20493;-80
2020/12/11 08:56:23;;;;;;;30.35;4.63;;;;;;;11.18;77.34;97422.59;5050250;28;20021;-81
2020/12/11 08:58:48;;;;;;;27.90;4.63;;;;;;;11.16;77.59;97420.13;5049802;28;20032;-81
2020/12/11 09:01:13;;;;;;;28.70;4.07;;;;;;;11.21;77.33;97420.38;5043284;28;20022;-81
2020/12/11 09:03:39;;;;;;;26.80;3.92;;;;;;;11.17;77.45;97415.69;5038681;28;20076;-81
2020/12/11 09:06:04;;;;;;;23.83;4.82;;;;;;;11.24;77.37;97416.59;5031892;28;20052;-81
2020/12/11 09:08:29;;;;;;;23.05;4.38;;;;;;;11.28;77.51;97423.13;5050251;28;20036;-80
2020/12/11 09:10:55;;;;;;;23.13;4.13;;;;;;;11.32;77.27;97419.13;5051651;28;20028;-80
2020/12/11 09:13:20;;;;;;;21.33;4.10;;;;;;;11.37;77.41;97426.47;5051748;28;20099;-81
2020/12/11 09:15:45;;;;;;;28.08;4.00;;;;;;;11.36;77.53;97424.84;5051740;28;20052;-81
2020/12/11 09:18:11;;;;;;;16.00;3.17;;;;;;;11.41;77.33;97425.91;5051213;28;20033;-80
2020/12/11 09:20:36;;;;;;;21.85;5.05;;;;;;;11.45;77.47;97432.44;5050158;28;20407;-81
2020/12/11 09:23:02;;;;;;;18.52;4.03;;;;;;;11.48;77.36;97426.00;5051097;28;20107;-80
2020/12/11 09:25:27;;;;;;;19.88;3.53;;;;;;;11.54;77.25;97427.09;5051382;28;20025;-80
2020/12/11 09:27:52;;;;;;;19.30;3.03;;;;;;;11.57;77.27;97431.97;5051495;28;20559;-80
2020/12/11 09:35:18;;;;;;;14.85;3.17;;;;;;;11.61;77.07;97434.06;5046477;28;20034;-80
2020/12/11 09:37:49;;;;;;;29.70;5.30;;;;;;;11.68;76.61;97442.03;5047095;28;20113;-80
2020/12/11 09:40:16;;;;;;;25.23;4.00;;;;;;;11.78;76.45;97439.91;5051115;28;20040;-80
2020/12/11 09:42:57;;;;;;;23.10;4.18;;;;;;;11.68;76.51;97449.91;5046658;28;20029;-80
2020/12/11 09:45:34;;;;;;;23.20;4.30;;;;;;;11.60;76.76;97440.31;5044286;28;20045;-81
2020/12/11 09:55:44;;;;;;;25.17;4.80;;;;;;;11.68;76.68;97455.16;5039519;28;20422;-82
2020/12/11 09:58:09;;;;;;;20.83;5.43;;;;;;;11.74;76.47;97451.78;5033477;28;20040;-81
2020/12/11 10:00:35;;;;;;;16.38;3.85;;;;;;;11.78;76.47;97463.56;5045425;28;20398;-80
2020/12/11 10:03:07;;;;;;;25.45;3.58;;;;;;;11.77;76.71;97459.31;5041491;28;20057;-80
2020/12/11 10:05:33;;;;;;;32.35;5.72;;;;;;;11.74;76.85;97456.25;5031625;28;20037;-82
2020/12/11 10:07:58;;;;;;;24.00;5.18;;;;;;;11.78;76.80;97457.50;5039158;28;20490;-82
2020/12/11 10:10:23;;;;;;;36.83;5.47;;;;;;;11.76;76.63;97457.69;5058344;28;20371;-82
2020/12/11 10:12:49;;;;;;;22.00;4.22;;;;;;;11.82;76.59;97462.19;5060875;22;20041;-90
2020/12/11 10:15:20;;;;;;;26.70;5.60;;;;;;;11.80;76.43;97453.69;5031967;28;20029;-89
2020/12/11 10:17:46;;;;;;;27.02;4.45;;;;;;;11.84;76.33;97457.56;5045848;28;20036;-90
2020/12/11 10:20:18;;;;;;;40.45;4.75;;;;;;;11.83;76.44;97453.31;5040621;28;20412;-89
2020/12/11 10:22:43;;;;;;;;;;;;;;;11.88;76.34;97461.44;5036523;28;20078;-89
2020/12/11 10:25:08;;;;;;;21.73;3.35;;;;;;;11.90;76.84;97451.59;5041754;28;20346;-89
2020/12/11 10:27:34;;;;;;;26.65;5.50;;;;;;;12.05;75.95;97450.75;5036276;28;20147;-89
2020/12/11 10:29:59;;;;;;;22.42;4.07;;;;;;;12.02;76.01;97449.31;5041445;28;20128;-90
2020/12/11 10:32:24;;;;;;;24.58;4.38;;;;;;;12.06;76.51;97449.75;5040521;28;20624;-88
2020/12/11 10:34:50;;;;;;;30.27;4.80;;;;;;;12.09;76.41;97447.56;5050773;28;20470;-89
2020/12/11 10:37:15;;;;;;;29.60;5.45;;;;;;;12.13;75.83;97447.22;5038076;28;20495;-88
2020/12/11 10:39:41;;;;;;;20.75;4.15;;;;;;;12.17;75.88;97454.53;5038181;28;20167;-89
2020/12/11 10:42:06;;;;;;;21.92;4.40;;;;;;;12.07;76.50;97454.84;5044079;28;20087;-89
2020/12/11 10:44:32;;;;;;;20.90;3.97;;;;;;;12.10;76.62;97457.09;5046270;28;20547;-89
2020/12/11 10:46:58;;;;;;;21.08;4.43;;;;;;;12.16;76.60;97454.72;5032302;28;20423;-89
2020/12/11 10:49:24;;;;;;;28.63;5.35;;;;;;;12.13;76.23;97458.53;5034897;28;20021;-90
2020/12/11 10:51:50;;;;;;;25.40;5.03;;;;;;;12.02;75.30;97467.72;5037463;28;20021;-89
2020/12/11 10:54:17;;;;;;;25.77;5.35;;;;;;;11.99;76.15;97472.56;5053506;28;20025;-89
2020/12/11 10:56:46;;;;;;;19.75;3.88;;;;;;;12.01;74.97;97473.19;5046821;28;20025;-88
2020/12/11 10:59:12;;;;;;;21.70;3.60;;;;;;;11.93;76.29;97468.84;5032745;28;20025;-88
2020/12/11 11:01:38;;;;;;;14.95;3.70;;;;;;;11.92;76.15;97476.91;5032247;28;20023;-89
2020/12/11 11:04:04;;;;;;;19.83;3.20;;;;;;;11.89;75.74;97475.47;5034182;28;20033;-89
2020/12/11 11:06:42;;;;;;;24.42;3.75;;;;;;;11.72;76.58;97477.44;5038831;28;20051;-89
2020/12/11 11:09:16;;;;;;;24.45;3.33;;;;;;;11.79;77.02;97472.25;5053411;28;20025;-89
2020/12/11 11:11:59;;;;;;;19.20;3.78;;;;;;;11.83;76.36;97463.84;5053314;28;20025;-89
2020/12/11 11:15:02;;;;;;;25.13;3.88;;;;;;;11.74;76.45;97467.56;5053909;28;20091;-89
2020/12/11 11:20:37;;;;;;;21.45;3.88;;;;;;;11.90;77.73;97470.00;5052786;28;20071;-91
2020/12/11 11:27:45;;;;;;;16.40;3.42;;;;;;;12.12;76.32;97467.41;5047188;28;20028;-89
2020/12/11 11:30:10;;;;;;;30.27;4.97;;;;;;;12.08;76.25;97466.16;5040536;28;20471;-89
2020/12/11 11:32:36;;;;;;;21.08;3.58;;;;;;;12.09;75.89;97467.81;5050600;28;20109;-89
2020/12/11 11:35:03;;;;;;;18.70;3.72;;;;;;;11.95;76.34;97473.88;5052826;28;20066;-90
2020/12/11 11:37:29;;;;;;;21.88;4.10;;;;;;;11.90;77.03;97464.75;5052187;28;20037;-89
2020/12/11 11:39:56;;;;;;;17.67;3.42;;;;;;;12.12;76.73;97462.16;5053250;28;20058;-90
2020/12/11 11:42:21;;;;;;;20.73;4.07;;;;;;;12.24;76.19;97460.69;5054376;28;20021;-89
2020/12/11 11:47:15;;;;;;;18.98;3.33;;;;;;;12.39;75.18;97457.16;5052274;28;20029;-89
2020/12/11 11:50:14;;;;;;;17.25;3.25;;;;;;;12.45;75.86;97448.53;5054066;28;20505;-90
2020/12/11 11:54:52;;;;;;;33.83;5.28;;;;;;;12.35;74.76;97440.13;5052231;28;20467;-89
2020/12/11 11:57:17;;;;;;;14.32;2.90;;;;;;;12.60;74.64;97444.00;5052367;28;20550;-89
2020/12/11 11:59:43;;;;;;;18.05;3.50;;;;;;;12.70;75.26;97444.50;5051196;28;20040;-91
2020/12/11 12:02:08;;;;;;;26.92;4.68;;;;;;;12.69;75.69;97432.31;5043170;28;20025;-89
2020/12/11 12:04:34;;;;;;;19.25;4.38;;;;;;;12.46;74.94;97434.34;5036481;28;20028;-91